Time;durP1;ratioP1;P1;durP2;ratioP2;P2;SDS_P1;SDS_P2;PMS_P1;PMS_P2;Temp;Humidity;BMP_temperature;BMP_pressure;BME280_temperature;BME280_humidity;BME280_pressure;Samples;Min_cycle;Max_cycle;Signal;HPM_P1;HPM_P2
2021/06/14 00:00:41;;;;;;;;;5.00;5.00;;;;;24.73;36.52;101584.56;5099403;27;45316;-48
2021/06/14 00:03:06;;;;;;;;;4.00;4.00;;;;;24.72;36.52;101588.25;5106873;27;47154;-45
2021/06/14 00:05:43;;;;;;;;;8.25;8.00;;;;;24.70;36.29;101592.06;5101777;27;45407;-48
2021/06/14 00:08:12;;;;;;;;;6.75;5.50;;;;;24.69;36.80;101595.75;5105733;27;45503;-45
2021/06/14 00:10:39;;;;;;;;;6.00;5.00;;;;;24.67;37.08;101590.41;5111243;27;45335;-46
2021/06/14 00:13:06;;;;;;;;;9.00;9.00;;;;;24.66;36.78;101599.53;5101483;27;47412;-46
2021/06/14 00:15:33;;;;;;;;;4.75;4.75;;;;;24.65;36.95;101592.38;5104778;27;45813;-44
2021/06/14 00:18:01;;;;;;;;;6.00;6.00;;;;;24.62;37.18;101584.41;5100534;27;45894;-43
2021/06/14 00:20:27;;;;;;;;;4.25;4.25;;;;;24.61;37.14;101586.25;5105105;27;45510;-45
2021/06/14 00:22:53;;;;;;;;;13.25;13.25;;;;;24.58;36.96;101588.31;5099794;27;47265;-44
2021/06/14 00:25:26;;;;;;;;;5.25;5.25;;;;;24.56;37.29;101587.56;5114290;27;46034;-45
2021/06/14 00:27:52;;;;;;;;;9.00;9.00;;;;;24.55;37.10;101583.09;5110810;27;45410;-46
2021/06/14 00:30:47;;;;;;;;;9.50;7.50;;;;;24.54;37.25;101584.94;5116136;27;45766;-46
2021/06/14 00:33:14;;;;;;;;;4.75;4.75;;;;;24.55;37.32;101592.09;5098716;27;45558;-44
2021/06/14 00:35:42;;;;;;;;;11.00;10.25;;;;;24.56;37.46;101593.84;5102118;27;45465;-49
2021/06/14 00:38:08;;;;;;;;;13.25;11.50;;;;;24.57;37.59;101594.72;5104693;27;45310;-45
2021/06/14 00:40:35;;;;;;;;;14.25;14.25;;;;;24.58;37.48;101591.91;5099369;27;45538;-46
2021/06/14 00:43:03;;;;;;;;;13.75;13.75;;;;;24.59;37.50;101584.63;5102474;27;48485;-45
2021/06/14 00:45:31;;;;;;;;;13.50;11.75;;;;;24.60;37.56;101584.50;5115509;27;45662;-47
2021/06/14 00:47:58;;;;;;;;;12.75;12.50;;;;;24.60;37.46;101581.81;5107196;27;45388;-48
2021/06/14 00:51:04;;;;;;;;;9.75;9.75;;;;;24.61;37.57;101601.66;5107900;27;45501;-45
2021/06/14 00:53:34;;;;;;;;;12.75;12.50;;;;;24.62;37.45;101595.25;5087271;27;48208;-46
2021/06/14 00:56:01;;;;;;;;;11.75;9.75;;;;;24.63;37.83;101591.56;5064568;27;45675;-45
2021/06/14 00:58:27;;;;;;;;;8.75;8.25;;;;;24.64;37.67;101590.59;5085685;27;45385;-46
2021/06/14 01:00:54;;;;;;;;;8.00;8.00;;;;;24.63;37.68;101581.59;5103851;27;45318;-45
2021/06/14 01:03:20;;;;;;;;;6.75;6.75;;;;;24.64;37.99;101586.03;5116823;27;45477;-47
2021/06/14 01:05:52;;;;;;;;;8.00;7.00;;;;;24.64;37.84;101586.03;5115851;27;45415;-46
2021/06/14 01:08:18;;;;;;;;;8.50;8.50;;;;;24.64;37.68;101591.47;5100423;27;45262;-47
2021/06/14 01:10:44;;;;;;;;;6.25;6.25;;;;;24.64;37.71;101583.31;5111571;27;45525;-48
2021/06/14 01:13:24;;;;;;;;;9.00;9.00;;;;;24.65;37.94;101584.22;5111660;27;48226;-46
2021/06/14 01:16:07;;;;;;;;;11.50;10.50;;;;;24.64;37.87;101577.91;5103463;27;45313;-45
2021/06/14 01:19:10;;;;;;;;;10.00;9.75;;;;;24.62;37.61;101582.56;5098716;27;45502;-46
2021/06/14 01:22:01;;;;;;;;;9.00;7.00;;;;;24.61;37.88;101578.13;5075261;27;45637;-44
2021/06/14 01:24:36;;;;;;;;;6.75;6.75;;;;;24.61;37.88;101585.38;5087168;27;47275;-45
2021/06/14 01:27:06;;;;;;;;;8.00;8.00;;;;;24.60;37.85;101576.38;5102170;27;45665;-49
2021/06/14 01:29:33;;;;;;;;;8.00;7.00;;;;;24.58;38.02;101575.63;5102027;27;45348;-47
2021/06/14 01:32:01;;;;;;;;;9.00;9.00;;;;;24.57;38.26;101571.16;5101874;27;45820;-44
2021/06/14 01:34:29;;;;;;;;;10.00;10.00;;;;;24.55;38.24;101573.09;5101131;27;48227;-49
2021/06/14 01:37:00;;;;;;;;;5.00;5.00;;;;;24.53;37.93;101568.75;5102806;27;45428;-48
2021/06/14 01:39:28;;;;;;;;;8.00;8.00;;;;;24.51;38.22;101563.41;5108435;27;45473;-44
2021/06/14 01:41:54;;;;;;;;;6.75;6.75;;;;;24.49;38.38;101559.94;5104868;27;46018;-46
2021/06/14 01:44:21;;;;;;;;;7.75;7.50;;;;;24.48;38.42;101560.91;5102677;27;47363;-44
2021/06/14 01:46:50;;;;;;;;;8.00;8.00;;;;;24.46;38.38;101560.16;5111294;27;45761;-46
2021/06/14 01:49:16;;;;;;;;;7.75;7.00;;;;;24.45;38.50;101547.56;5100265;27;45798;-47
2021/06/14 01:51:43;;;;;;;;;7.50;7.50;;;;;24.44;38.49;101542.22;5104412;27;45409;-46
2021/06/14 01:54:09;;;;;;;;;6.75;6.75;;;;;24.43;38.87;101541.38;5103572;27;46327;-44
2021/06/14 01:56:38;;;;;;;;;7.75;7.75;;;;;24.43;38.97;101538.66;5109940;27;45435;-47
2021/06/14 01:59:07;;;;;;;;;5.50;5.50;;;;;24.42;38.84;101531.50;5116105;27;47912;-44
2021/06/14 02:01:36;;;;;;;;;8.00;8.00;;;;;24.39;38.90;101523.53;5102896;27;45257;-43
2021/06/14 02:04:02;;;;;;;;;4.25;4.25;;;;;24.40;38.86;101524.44;5110337;27;47400;-46
2021/06/14 02:06:31;;;;;;;;;9.00;7.50;;;;;24.34;38.66;101523.84;5105646;27;45458;-49
2021/06/14 02:08:59;;;;;;;;;7.00;7.00;;;;;24.30;39.19;101524.16;5104297;27;45411;-46
2021/06/14 02:11:26;;;;;;;;;7.25;7.25;;;;;24.24;39.16;101519.97;5109076;27;45558;-46
2021/06/14 02:13:53;;;;;;;;;5.00;5.00;;;;;24.20;39.23;101528.41;5106028;27;46134;-45
2021/06/14 02:16:19;;;;;;;;;8.75;7.25;;;;;24.17;39.03;101528.63;5114067;27;45331;-47
2021/06/14 02:18:45;;;;;;;;;7.50;7.50;;;;;24.13;39.11;101519.78;5112968;27;45348;-45
2021/06/14 02:21:11;;;;;;;;;8.00;7.25;;;;;24.10;39.17;101527.28;5111939;27;45427;-45
2021/06/14 02:23:37;;;;;;;;;8.50;8.50;;;;;24.06;39.43;101516.63;5108253;27;47181;-45
2021/06/14 02:26:02;;;;;;;;;8.25;7.75;;;;;24.05;39.51;101514.91;5111312;27;45477;-46
2021/06/14 02:28:28;;;;;;;;;7.25;6.75;;;;;24.05;39.50;101514.03;5108657;27;45302;-46
2021/06/14 02:30:53;;;;;;;;;5.00;5.00;;;;;24.05;39.78;101508.59;5105325;27;45500;-46
2021/06/14 02:33:19;;;;;;;;;9.00;8.00;;;;;24.03;39.93;101500.56;5110142;27;48353;-48
2021/06/14 02:35:45;;;;;;;;;9.00;7.00;;;;;24.03;39.84;101495.16;5105732;27;45897;-44
2021/06/14 02:38:11;;;;;;;;;4.50;4.25;;;;;24.03;39.86;101488.84;5111728;27;45443;-47
2021/06/14 02:40:37;;;;;;;;;7.50;7.50;;;;;24.01;39.86;101479.94;5104449;27;45726;-46
2021/06/14 02:43:06;;;;;;;;;7.50;7.50;;;;;23.98;39.91;101475.59;5101131;27;48329;-49
2021/06/14 02:45:32;;;;;;;;;7.00;7.00;;;;;23.97;39.89;101483.81;5108595;27;46156;-47
2021/06/14 02:47:59;;;;;;;;;7.00;7.00;;;;;23.97;40.27;101475.69;5104614;27;45527;-47
2021/06/14 02:50:27;;;;;;;;;7.00;7.00;;;;;23.96;40.15;101480.25;5101144;27;45741;-44
2021/06/14 02:52:55;;;;;;;;;6.00;6.00;;;;;23.97;40.25;101483.81;5101283;27;47392;-48
2021/06/14 02:55:28;;;;;;;;;7.50;7.50;;;;;23.95;40.24;101488.47;5115274;27;45772;-46
2021/06/14 02:57:57;;;;;;;;;6.00;6.00;;;;;23.94;40.26;101492.16;5106763;27;47186;-45
2021/06/14 03:00:30;;;;;;;;;8.00;7.00;;;;;23.92;40.11;101486.84;5110134;27;45344;-45
2021/06/14 03:03:01;;;;;;;;;6.00;6.00;;;;;23.90;40.17;101483.38;5111817;27;48736;-45
2021/06/14 03:05:30;;;;;;;;;6.00;6.00;;;;;23.90;40.34;101485.22;5105882;27;45411;-47
2021/06/14 03:08:05;;;;;;;;;7.50;7.50;;;;;23.86;40.25;101487.22;5106539;27;45403;-44
2021/06/14 03:10:33;;;;;;;;;6.50;5.50;;;;;23.86;40.51;101484.50;5116687;27;45245;-46
2021/06/14 03:13:01;;;;;;;;;7.25;6.50;;;;;23.84;40.22;101483.75;5112238;27;48157;-45
2021/06/14 03:15:28;;;;;;;;;5.25;5.25;;;;;23.84;40.46;101481.03;5104216;27;45506;-47
2021/06/14 03:17:54;;;;;;;;;7.00;7.00;;;;;23.82;40.41;101474.00;5100584;27;45313;-45
2021/06/14 03:20:23;;;;;;;;;5.00;5.00;;;;;23.81;40.04;101483.09;5102326;27;45308;-45
2021/06/14 03:22:48;;;;;;;;;7.25;7.25;;;;;23.81;40.52;101480.38;5109447;27;47307;-47
2021/06/14 03:25:14;;;;;;;;;6.25;6.25;;;;;23.80;40.61;101484.94;5107682;27;45700;-44
2021/06/14 03:27:42;;;;;;;;;6.75;6.75;;;;;23.81;40.47;101486.66;5107067;27;45469;-44
2021/06/14 03:30:10;;;;;;;;;7.50;7.50;;;;;23.79;40.75;101477.78;5111859;27;45367;-45
2021/06/14 03:32:39;;;;;;;;;6.75;6.75;;;;;23.80;40.75;101484.94;5101316;27;47268;-44
2021/06/14 03:35:07;;;;;;;;;9.25;6.50;;;;;23.78;40.68;101484.16;5105949;27;45491;-45
2021/06/14 03:37:34;;;;;;;;;6.50;6.50;;;;;23.75;40.70;101485.22;5115168;27;45324;-43
2021/06/14 03:40:01;;;;;;;;;6.00;6.00;;;;;23.72;40.37;101489.97;5103863;27;45453;-44
2021/06/14 03:42:30;;;;;;;;;6.00;6.00;;;;;23.69;40.48;101487.47;5104506;27;48279;-46
2021/06/14 03:44:56;;;;;;;;;6.25;6.25;;;;;23.65;40.58;101491.34;5111549;27;45384;-44
2021/06/14 03:47:21;;;;;;;;;8.00;6.75;;;;;23.59;40.69;101492.59;5114445;27;45505;-44
2021/06/14 03:49:47;;;;;;;;;5.75;5.75;;;;;23.55;40.77;101488.31;5106902;27;45564;-44
2021/06/14 03:52:12;;;;;;;;;5.75;5.75;;;;;23.54;40.98;101493.84;5111059;27;47404;-45
2021/06/14 03:54:38;;;;;;;;;7.75;7.75;;;;;23.54;41.45;101496.53;5109788;27;45999;-45
2021/06/14 03:57:04;;;;;;;;;6.75;6.75;;;;;23.48;41.10;101497.78;5102084;27;45358;-45
2021/06/14 03:59:29;;;;;;;;;5.25;5.00;;;;;23.45;41.11;101500.69;5100672;27;45579;-43
2021/06/14 04:01:55;;;;;;;;;7.00;7.00;;;;;23.44;41.54;101507.09;5107323;27;47328;-44
2021/06/14 04:06:46;;;;;;;;;7.00;6.50;;;;;23.39;41.85;101512.81;5106790;27;45530;-45
2021/06/14 04:09:11;;;;;;;;;8.25;6.75;;;;;23.37;41.41;101506.59;5117856;27;45630;-44
2021/06/14 04:11:37;;;;;;;;;6.00;6.00;;;;;23.31;41.37;101506.09;5109276;27;47141;-45
2021/06/14 04:14:02;;;;;;;;;7.50;7.50;;;;;23.28;41.84;101506.31;5110576;27;45298;-43
2021/06/14 04:16:28;;;;;;;;;5.25;5.25;;;;;23.27;41.47;101505.44;5099226;27;45319;-44
2021/06/14 04:18:53;;;;;;;;;7.00;7.00;;;;;23.26;41.61;101513.66;5103577;27;45607;-47
2021/06/14 04:21:18;;;;;;;;;5.75;5.75;;;;;23.13;41.39;101509.00;5099250;27;48061;-43
2021/06/14 04:23:44;;;;;;;;;8.00;7.25;;;;;23.11;42.11;101510.91;5099220;27;45382;-43
2021/06/14 04:26:11;;;;;;;;;9.50;8.75;;;;;23.05;41.81;101511.31;5109251;27;45388;-46
2021/06/14 04:28:37;;;;;;;;;6.00;6.00;;;;;23.03;42.18;101507.81;5109413;27;45734;-44
2021/06/14 04:31:03;;;;;;;;;6.75;6.75;;;;;23.05;42.03;101519.41;5101545;27;47338;-45
2021/06/14 04:33:28;;;;;;;;;7.25;6.00;;;;;23.06;42.63;101512.16;5113955;27;45711;-44
2021/06/14 04:35:54;;;;;;;;;9.50;9.50;;;;;23.07;42.65;101513.91;5108131;27;45762;-45
2021/06/14 04:38:20;;;;;;;;;7.75;7.75;;;;;23.03;42.66;101506.94;5104010;27;45309;-44
2021/06/14 04:40:45;;;;;;;;;8.75;8.50;;;;;23.03;42.55;101523.19;5102894;27;47104;-44
2021/06/14 04:43:11;;;;;;;;;8.25;8.00;;;;;22.99;42.38;101527.91;5099228;27;45780;-45
2021/06/14 04:45:36;;;;;;;;;7.25;7.25;;;;;23.00;42.40;101523.38;5101889;27;45410;-46
2021/06/14 04:48:02;;;;;;;;;8.50;8.00;;;;;22.97;42.37;101535.25;5108069;27;45549;-48
2021/06/14 04:50:28;;;;;;;;;6.25;6.25;;;;;22.96;42.49;101532.63;5103310;27;47105;-48
2021/06/14 04:52:55;;;;;;;;;7.00;7.00;;;;;22.90;42.19;101533.91;5107009;27;45532;-44
2021/06/14 04:55:20;;;;;;;;;9.75;8.75;;;;;22.82;42.83;101528.03;5113807;27;45867;-43
2021/06/14 04:57:46;;;;;;;;;8.75;8.00;;;;;22.78;42.46;101531.88;5103173;27;45738;-46
2021/06/14 05:00:12;;;;;;;;;8.00;7.00;;;;;22.75;42.94;101529.38;5100546;27;46105;-46
2021/06/14 05:02:37;;;;;;;;;7.00;6.50;;;;;22.73;42.79;101532.13;5103701;27;45560;-45
2021/06/14 05:05:04;;;;;;;;;6.50;6.00;;;;;22.74;43.42;101541.13;5101103;27;45505;-44
2021/06/14 05:07:30;;;;;;;;;7.75;7.75;;;;;22.77;43.35;101540.97;5096468;27;45619;-44
2021/06/14 05:09:56;;;;;;;;;6.00;6.00;;;;;22.79;43.07;101541.75;5104461;27;47175;-44
2021/06/14 05:12:22;;;;;;;;;7.75;6.75;;;;;22.71;42.86;101544.91;5097615;27;45396;-48
2021/06/14 05:14:48;;;;;;;;;7.75;7.75;;;;;22.65;43.12;101552.53;5105362;27;45389;-45
2021/06/14 05:17:13;;;;;;;;;8.25;8.25;;;;;22.64;43.07;101562.47;5101701;27;45427;-46
2021/06/14 05:19:39;;;;;;;;;7.50;7.50;;;;;22.64;43.25;101554.34;5099568;27;47339;-45
2021/06/14 05:22:05;;;;;;;;;9.00;9.00;;;;;22.67;43.49;101553.31;5098666;27;45753;-47
2021/06/14 05:24:31;;;;;;;;;10.00;9.00;;;;;22.72;43.56;101564.72;5103662;27;45665;-45
2021/06/14 05:26:57;;;;;;;;;6.50;6.50;;;;;22.72;43.59;101567.41;5098635;27;45508;-46
2021/06/14 05:29:23;;;;;;;;;8.00;7.00;;;;;22.72;43.56;101560.16;5116009;27;47430;-48
2021/06/14 05:31:49;;;;;;;;;8.25;6.00;;;;;22.74;42.98;101560.97;5105567;27;45329;-45
2021/06/14 05:34:15;;;;;;;;;8.00;8.00;;;;;22.77;43.09;101563.50;5102147;27;45504;-45
2021/06/14 05:36:40;;;;;;;;;8.25;7.25;;;;;22.80;42.94;101565.13;5121590;27;45852;-45
2021/06/14 05:39:06;;;;;;;;;9.25;8.00;;;;;22.81;43.36;101562.34;5085569;27;45419;-46
2021/06/14 05:41:31;;;;;;;;;7.50;7.50;;;;;22.81;43.14;101556.94;5090345;27;45681;-44
2021/06/14 05:43:57;;;;;;;;;8.50;7.75;;;;;22.82;43.00;101552.38;5090295;27;45286;-45
2021/06/14 05:46:22;;;;;;;;;9.00;9.00;;;;;22.85;43.28;101558.50;5081657;27;45538;-44
2021/06/14 05:48:48;;;;;;;;;7.00;7.00;;;;;22.86;43.19;101552.13;5081242;27;47078;-45
2021/06/14 05:51:13;;;;;;;;;7.25;6.25;;;;;22.89;43.09;101556.50;5092041;27;45690;-49
2021/06/14 05:53:39;;;;;;;;;11.50;9.00;;;;;22.88;42.75;101549.34;5087684;27;45406;-44
2021/06/14 05:56:04;;;;;;;;;7.25;7.25;;;;;22.91;42.94;101551.88;5078326;27;45410;-45
2021/06/14 05:58:30;;;;;;;;;8.00;8.00;;;;;22.95;42.98;101548.00;5078757;27;47346;-47
2021/06/14 06:00:55;;;;;;;;;6.00;6.00;;;;;22.99;43.03;101548.69;5101415;27;45392;-48
2021/06/14 06:03:21;;;;;;;;;11.00;10.00;;;;;23.03;42.97;101550.25;5080817;27;45781;-44
2021/06/14 06:05:46;;;;;;;;;7.75;7.75;;;;;23.06;43.09;101550.06;5083956;27;45447;-47
2021/06/14 06:08:12;;;;;;;;;9.25;9.25;;;;;23.11;42.92;101548.81;5082871;27;46422;-47
2021/06/14 06:10:37;;;;;;;;;11.00;10.00;;;;;23.14;42.75;101559.47;5091602;27;45652;-47
2021/06/14 06:13:03;;;;;;;;;9.00;9.00;;;;;23.17;42.95;101563.84;5081031;27;45887;-45
2021/06/14 06:15:29;;;;;;;;;9.50;9.50;;;;;23.20;42.83;101559.09;5083933;27;45525;-45
2021/06/14 06:17:56;;;;;;;;;10.75;8.00;;;;;23.24;42.82;101567.91;5097444;27;47185;-44
2021/06/14 06:20:22;;;;;;;;;8.50;8.25;;;;;23.26;42.83;101567.81;5083956;27;45417;-45
2021/06/14 06:22:48;;;;;;;;;10.25;10.25;;;;;23.28;42.25;101558.63;5087957;27;45517;-48
2021/06/14 06:25:19;;;;;;;;;11.50;10.50;;;;;23.29;42.78;101560.38;5087693;27;45628;-44
2021/06/14 06:27:46;;;;;;;;;8.00;7.25;;;;;23.31;42.21;101554.88;5090223;27;48210;-46
2021/06/14 06:30:12;;;;;;;;;11.00;10.00;;;;;23.31;42.38;101550.31;5088124;27;45296;-43
2021/06/14 06:32:38;;;;;;;;;8.75;8.75;;;;;23.32;42.31;101556.59;5089714;27;45291;-47
2021/06/14 06:35:05;;;;;;;;;10.50;9.75;;;;;23.31;42.61;101550.31;5089947;27;45447;-49
2021/06/14 06:37:31;;;;;;;;;7.25;7.00;;;;;23.34;42.80;101550.13;5088764;27;48234;-44
2021/06/14 06:39:57;;;;;;;;;10.25;9.50;;;;;23.36;42.58;101550.88;5085300;27;45439;-44
2021/06/14 06:42:24;;;;;;;;;8.50;7.00;;;;;23.38;41.99;101550.81;5091650;27;45500;-44
2021/06/14 06:44:50;;;;;;;;;10.50;10.50;;;;;23.40;42.52;101546.19;5088303;27;45493;-49
2021/06/14 06:47:15;;;;;;;;;10.75;9.00;;;;;23.42;42.12;101546.94;5097678;27;46349;-49
2021/06/14 06:49:41;;;;;;;;;9.50;8.25;;;;;23.42;42.00;101542.41;5082857;27;45285;-50
2021/06/14 06:52:06;;;;;;;;;11.25;11.25;;;;;23.45;42.43;101552.16;5091057;27;45527;-47
2021/06/14 06:54:32;;;;;;;;;10.75;8.50;;;;;23.48;43.01;101546.56;5083680;27;45517;-47
2021/06/14 06:56:58;;;;;;;;;8.25;8.25;;;;;23.53;43.21;101540.88;5086455;27;47334;-48
2021/06/14 06:59:24;;;;;;;;;11.25;10.25;;;;;23.58;42.60;101555.00;5084671;27;45805;-45
2021/06/14 07:01:50;;;;;;;;;8.75;8.75;;;;;23.62;42.40;101548.41;5081150;27;46071;-46
2021/06/14 07:04:16;;;;;;;;;11.00;9.25;;;;;23.65;42.38;101545.53;5089797;27;45891;-47
2021/06/14 07:06:42;;;;;;;;;9.50;9.00;;;;;23.66;42.33;101540.03;5093420;27;48479;-48
2021/06/14 07:09:08;;;;;;;;;10.75;9.00;;;;;23.69;42.13;101537.13;5080548;27;45469;-47
2021/06/14 07:11:34;;;;;;;;;8.25;6.00;;;;;23.70;41.93;101541.56;5084512;27;45479;-48
2021/06/14 07:14:00;;;;;;;;;7.75;7.00;;;;;23.70;41.94;101535.28;5087712;27;45780;-51
2021/06/14 07:16:25;;;;;;;;;8.50;8.50;;;;;23.72;41.92;101533.31;5084984;27;47380;-49
2021/06/14 07:18:53;;;;;;;;;7.50;7.50;;;;;23.74;41.59;101525.97;5089765;27;45380;-48
2021/06/14 07:21:20;;;;;;;;;9.25;9.25;;;;;23.75;41.50;101534.00;5094161;27;45678;-49
2021/06/14 07:23:46;;;;;;;;;8.75;8.75;;;;;23.77;41.69;101531.22;5093511;27;45380;-52
2021/06/14 07:26:12;;;;;;;;;10.00;9.00;;;;;23.80;41.60;101530.13;5089181;27;45499;-49
2021/06/14 07:28:38;;;;;;;;;12.25;9.75;;;;;23.82;41.67;101536.34;5088088;27;45613;-46
2021/06/14 07:31:05;;;;;;;;;8.00;7.25;;;;;23.85;41.38;101519.88;5099361;27;45774;-50
2021/06/14 07:33:33;;;;;;;;;9.00;9.00;;;;;23.86;41.76;101525.19;5076573;27;45434;-46
2021/06/14 07:35:58;;;;;;;;;11.75;9.00;;;;;23.89;41.84;101524.13;5087271;27;46503;-45
2021/06/14 07:38:25;;;;;;;;;8.75;8.75;;;;;23.91;41.61;101523.06;5091573;27;45747;-45
2021/06/14 07:40:52;;;;;;;;;9.50;9.50;;;;;23.94;41.71;101520.16;5088827;27;45341;-45
2021/06/14 07:43:18;;;;;;;;;11.00;10.25;;;;;23.98;41.13;101531.66;5086161;27;45614;-49
2021/06/14 07:45:46;;;;;;;;;8.00;8.00;;;;;24.01;40.90;101526.94;5095657;27;47471;-48
2021/06/14 07:48:12;;;;;;;;;9.25;9.25;;;;;24.04;41.23;101525.84;5094382;27;45503;-47
2021/06/14 07:50:40;;;;;;;;;10.25;8.75;;;;;24.06;41.08;101522.06;5086535;27;45762;-45
2021/06/14 07:53:06;;;;;;;;;8.00;8.00;;;;;24.08;40.80;101513.81;5089396;27;45752;-47
2021/06/14 07:55:32;;;;;;;;;11.75;10.00;;;;;24.09;40.87;101512.84;5086915;27;47222;-47
2021/06/14 07:57:58;;;;;;;;;7.00;7.00;;;;;24.11;40.56;101505.47;5079820;27;45559;-45
2021/06/14 08:00:24;;;;;;;;;9.50;9.25;;;;;24.14;40.31;101504.41;5087209;27;45416;-48
2021/06/14 08:02:50;;;;;;;;;11.00;7.75;;;;;24.16;40.57;101508.78;5094555;27;45569;-46
2021/06/14 08:05:15;;;;;;;;;9.00;8.25;;;;;24.20;40.75;101509.44;5090406;27;47237;-45
2021/06/14 08:07:41;;;;;;;;;8.75;7.50;;;;;24.21;40.02;101516.59;5086116;27;45504;-46
2021/06/14 08:10:12;;;;;;;;;11.25;10.25;;;;;24.23;40.09;101515.50;5091337;27;45382;-46
2021/06/14 08:12:44;;;;;;;;;7.25;7.25;;;;;24.25;40.07;101508.13;5095321;27;45771;-47
2021/06/14 08:15:10;;;;;;;;;7.50;7.50;;;;;24.28;39.98;101513.38;5092693;27;45605;-44
2021/06/14 08:17:36;;;;;;;;;9.75;9.75;;;;;24.30;40.18;101506.03;5079553;27;45483;-46
2021/06/14 08:20:22;;;;;;;;;10.50;10.50;;;;;24.34;39.91;101493.13;5100765;27;45532;-49
2021/06/14 08:25:34;;;;;;;;;10.75;7.75;;;;;24.42;40.05;101493.50;5086076;27;48110;-46
2021/06/14 08:28:00;;;;;;;;;8.50;8.00;;;;;24.47;39.99;101493.19;5089007;27;45888;-44
2021/06/14 08:30:27;;;;;;;;;9.00;9.00;;;;;24.49;39.62;101489.38;5087541;27;45449;-44
2021/06/14 08:32:52;;;;;;;;;10.50;10.00;;;;;24.52;39.80;101489.19;5085532;27;45876;-46
2021/06/14 08:35:22;;;;;;;;;9.00;9.00;;;;;24.56;39.99;101479.88;5086890;27;47346;-44
2021/06/14 08:37:49;;;;;;;;;8.25;8.25;;;;;24.58;39.89;101472.47;5095332;27;45448;-45
2021/06/14 08:40:19;;;;;;;;;11.00;11.00;;;;;24.63;39.76;101472.16;5078190;27;45457;-42
2021/06/14 08:42:45;;;;;;;;;10.00;9.00;;;;;24.66;39.52;101477.41;5084779;27;45670;-46
2021/06/14 08:45:13;;;;;;;;;8.25;8.25;;;;;24.70;39.36;101480.75;5081865;27;46243;-43
2021/06/14 08:47:43;;;;;;;;;10.00;9.00;;;;;24.74;39.41;101482.28;5085622;27;45622;-44
2021/06/14 08:50:12;;;;;;;;;9.00;7.50;;;;;24.78;39.48;101481.97;5085262;27;45507;-43
2021/06/14 08:52:37;;;;;;;;;9.00;9.00;;;;;24.82;39.65;101474.50;5090787;27;45447;-46
2021/06/14 08:55:09;;;;;;;;;10.00;9.00;;;;;24.86;39.37;101471.44;5084924;27;45954;-45
2021/06/14 08:57:35;;;;;;;;;10.00;10.00;;;;;24.90;39.36;101467.56;5087422;27;45489;-43
2021/06/14 09:00:03;;;;;;;;;8.50;7.50;;;;;24.93;39.03;101458.31;5079103;27;45440;-47
2021/06/14 09:02:28;;;;;;;;;8.00;8.00;;;;;24.96;39.21;101463.53;5081468;27;45771;-45
2021/06/14 09:04:54;;;;;;;;;9.50;9.50;;;;;24.99;39.15;101448.88;5085532;27;45602;-44
2021/06/14 09:07:19;;;;;;;;;12.00;10.50;;;;;25.02;38.96;101459.53;5090165;27;45785;-44
2021/06/14 09:09:45;;;;;;;;;9.75;9.75;;;;;25.05;38.78;101453.91;5081121;27;45472;-46
2021/06/14 09:12:11;;;;;;;;;8.50;8.50;;;;;25.07;38.75;101451.94;5082469;27;45603;-47
2021/06/14 09:14:39;;;;;;;;;8.00;7.00;;;;;25.10;38.64;101451.72;5088832;27;46202;-45
2021/06/14 09:17:08;;;;;;;;;9.00;7.50;;;;;25.13;38.63;101444.22;5084112;27;45512;-49
2021/06/14 09:19:38;;;;;;;;;7.75;6.50;;;;;25.16;38.67;101443.16;5089634;27;45367;-45
2021/06/14 09:22:11;;;;;;;;;9.00;8.75;;;;;25.20;38.59;101444.66;5080905;27;45782;-49
2021/06/14 09:24:36;;;;;;;;;7.50;7.50;;;;;25.22;37.92;101446.28;5079026;27;45499;-45
2021/06/14 09:27:02;;;;;;;;;7.00;7.00;;;;;25.25;37.85;101450.63;5087060;27;45480;-49
2021/06/14 09:29:29;;;;;;;;;7.00;7.00;;;;;25.28;37.78;101446.81;5082518;27;45474;-46
2021/06/14 09:32:00;;;;;;;;;8.00;7.75;;;;;25.31;37.85;101446.63;5089546;27;45303;-49
2021/06/14 09:34:37;;;;;;;;;11.00;9.00;;;;;25.33;37.32;101444.66;5083490;27;47473;-49
2021/06/14 09:37:09;;;;;;;;;8.25;8.00;;;;;25.36;37.44;101444.44;5083389;27;45880;-48
2021/06/14 09:39:41;;;;;;;;;8.25;7.75;;;;;25.39;37.52;101442.34;5087202;27;45671;-45
2021/06/14 09:42:25;;;;;;;;;7.75;7.25;;;;;25.43;37.47;101438.44;5090610;27;45284;-49
2021/06/14 09:44:53;;;;;;;;;6.50;6.50;;;;;25.46;37.46;101437.34;5082473;27;46247;-47
2021/06/14 09:47:19;;;;;;;;;6.25;6.25;;;;;25.50;37.51;101437.00;5090456;27;45432;-51
2021/06/14 09:50:08;;;;;;;;;9.00;9.00;;;;;25.53;37.21;101442.22;5079812;27;45848;-47
2021/06/14 09:52:34;;;;;;;;;8.00;7.00;;;;;25.57;37.11;101437.44;5078694;27;45546;-45
2021/06/14 09:55:17;;;;;;;;;7.00;7.00;;;;;25.60;37.31;101439.94;5088437;27;45538;-46
2021/06/14 09:57:43;;;;;;;;;7.75;7.25;;;;;25.63;36.47;101441.53;5083039;27;45581;-48
2021/06/14 10:00:14;;;;;;;;;9.00;8.75;;;;;25.65;36.34;101448.59;5087132;27;45354;-46
2021/06/14 10:02:40;;;;;;;;;7.00;7.00;;;;;25.69;36.55;101441.16;5090176;27;45485;-47
2021/06/14 10:05:19;;;;;;;;;10.00;9.00;;;;;25.72;36.10;101441.78;5087990;27;46898;-47
2021/06/14 10:07:54;;;;;;;;;7.00;7.00;;;;;25.74;36.18;101437.09;5094883;27;45604;-50
2021/06/14 10:10:27;;;;;;;;;7.00;5.00;;;;;25.76;35.90;101439.69;5090767;27;45683;-46
2021/06/14 10:12:55;;;;;;;;;6.75;6.25;;;;;25.78;35.80;101444.03;5085248;27;45516;-48
2021/06/14 10:15:38;;;;;;;;;7.75;7.00;;;;;25.81;35.18;101440.25;5084458;27;49433;-46
2021/06/14 10:18:09;;;;;;;;;6.00;6.00;;;;;25.84;34.59;101440.00;5084681;27;45324;-46
2021/06/14 10:20:37;;;;;;;;;9.25;7.75;;;;;25.87;34.43;101441.63;5082888;27;45492;-47
2021/06/14 10:23:03;;;;;;;;;7.25;6.50;;;;;25.90;34.63;101431.38;5086581;27;45380;-44
2021/06/14 10:25:32;;;;;;;;;8.00;8.00;;;;;25.93;34.42;101433.88;5088294;27;47218;-48
2021/06/14 10:27:58;;;;;;;;;7.50;6.50;;;;;25.97;34.72;101429.09;5080150;27;45455;-49
2021/06/14 10:30:25;;;;;;;;;7.00;7.00;;;;;26.00;34.22;101432.44;5080902;27;46952;-46
2021/06/14 10:32:51;;;;;;;;;7.75;7.75;;;;;26.02;34.23;101433.19;5092737;27;45487;-47
2021/06/14 10:35:19;;;;;;;;;9.25;8.25;;;;;26.06;34.26;101436.56;5089846;27;46243;-46
2021/06/14 10:37:47;;;;;;;;;11.25;8.75;;;;;26.10;34.46;101433.47;5084506;27;45385;-45
2021/06/14 10:40:16;;;;;;;;;7.50;7.50;;;;;26.14;34.37;101430.53;5091954;27;45683;-46
2021/06/14 10:42:45;;;;;;;;;7.00;7.00;;;;;26.18;33.91;101437.47;5092974;27;45503;-43
2021/06/14 10:45:12;;;;;;;;;7.75;7.75;;;;;26.21;33.52;101431.81;5085659;27;48161;-44
2021/06/14 10:47:40;;;;;;;;;6.00;5.00;;;;;26.23;33.55;101436.13;5090595;27;45850;-42
2021/06/14 10:50:10;;;;;;;;;8.00;6.75;;;;;26.26;33.83;101438.63;5080814;27;45539;-44
2021/06/14 10:52:40;;;;;;;;;5.75;5.75;;;;;26.30;33.39;101434.69;5083900;27;45360;-43
2021/06/14 10:55:11;;;;;;;;;5.75;5.75;;;;;26.33;33.31;101430.88;5091798;27;47565;-43
2021/06/14 10:57:37;;;;;;;;;7.00;7.00;;;;;26.38;32.53;101436.84;5090161;27;45749;-43
2021/06/14 11:00:19;;;;;;;;;9.75;7.75;;;;;26.40;32.87;101429.44;5086311;27;45813;-43
2021/06/14 11:02:55;;;;;;;;;6.50;5.50;;;;;26.43;32.44;101429.22;5083740;27;45642;-44
2021/06/14 11:05:30;;;;;;;;;8.00;7.00;;;;;26.46;32.18;101425.38;5087316;27;46251;-43
2021/06/14 11:07:55;;;;;;;;;5.50;5.50;;;;;26.46;32.10;101426.25;5089867;27;45593;-43
2021/06/14 11:10:28;;;;;;;;;14.00;14.00;;;;;26.47;32.00;101425.25;5084587;27;45986;-46
2021/06/14 11:13:14;;;;;;;;;24.25;23.00;;;;;26.49;31.44;101422.41;5085630;27;45582;-42
2021/06/14 11:15:47;;;;;;;;;45.00;37.75;;;;;26.49;31.73;101428.72;5087038;27;45525;-42
2021/06/14 11:18:27;;;;;;;;;14.25;13.00;;;;;26.52;31.13;101424.91;5086369;27;46127;-45
2021/06/14 11:21:16;;;;;;;;;40.00;35.00;;;;;26.54;31.93;101426.50;5104983;27;45456;-42
2021/06/14 11:23:44;;;;;;;;;6.75;5.25;;;;;26.57;30.93;101422.69;5085854;27;45289;-42
2021/06/14 11:26:12;;;;;;;;;8.00;6.75;;;;;26.62;30.50;101424.06;5081934;27;47108;-46
2021/06/14 11:28:44;;;;;;;;;10.25;10.25;;;;;26.65;30.92;101422.94;5081465;27;46279;-45
2021/06/14 11:31:24;;;;;;;;;11.25;10.75;;;;;26.68;30.57;101420.88;5086098;27;45357;-46